createdAt,value
2022-11-22T00:00:13.657Z,95296.47
2022-11-22T00:02:42.563Z,95290.56
2022-11-22T00:05:11.696Z,95296.38
2022-11-22T00:07:41.348Z,95301.69
2022-11-22T00:10:11.350Z,95285.75
2022-11-22T00:12:42.601Z,95294.72
2022-11-22T00:15:13.774Z,95286.38
2022-11-22T00:17:42.655Z,95293.22
2022-11-22T00:20:12.441Z,95281.41
2022-11-22T00:22:45.029Z,95277.81
2022-11-22T00:25:14.188Z,95268.72
2022-11-22T00:27:43.697Z,95262.81
2022-11-22T00:30:14.169Z,95270.84
2022-11-22T00:32:43.057Z,95274.09
2022-11-22T00:35:12.830Z,95260.53
2022-11-22T00:37:41.789Z,95263.88
2022-11-22T00:40:11.524Z,95261.88
2022-11-22T00:42:40.415Z,95259.69
2022-11-22T00:45:10.291Z,95257.72
2022-11-22T00:47:40.542Z,95248.22
2022-11-22T00:50:09.841Z,95261.34
2022-11-22T00:52:38.866Z,95262.34
2022-11-22T00:55:08.893Z,95268.25
2022-11-22T00:57:37.764Z,95274.81
2022-11-22T01:00:07.938Z,95273.63
2022-11-22T01:02:41.598Z,95264.31
2022-11-22T01:05:10.762Z,95259.38
2022-11-22T01:07:39.699Z,95258.22
2022-11-22T01:10:09.272Z,95261.84
2022-11-22T01:12:38.211Z,95257.47
2022-11-22T01:15:07.879Z,95267.91
2022-11-22T01:17:37.006Z,95272.81
2022-11-22T01:20:08.102Z,95269.72
2022-11-22T01:22:36.986Z,95281.16
2022-11-22T01:25:06.129Z,95278.22
2022-11-22T01:27:35.023Z,95275.72
2022-11-22T01:30:04.076Z,95280.28
2022-11-22T01:32:32.946Z,95270.44
2022-11-22T01:35:02.299Z,95286.88
2022-11-22T01:37:32.574Z,95288.94
2022-11-22T01:40:01.436Z,95285.03
2022-11-22T01:42:43.909Z,95289.03
2022-11-22T01:45:41.109Z,95294.63
2022-11-22T01:48:15.409Z,95299.31
2022-11-22T01:50:45.618Z,95307.63
2022-11-22T01:53:18.401Z,95295.66
2022-11-22T01:55:47.274Z,95307.63
2022-11-22T01:58:16.199Z,95308.00
2022-11-22T02:00:45.463Z,95300.13
2022-11-22T02:03:14.595Z,95307.66
2022-11-22T02:05:43.451Z,95310.47
2022-11-22T02:08:16.186Z,95312.38
2022-11-22T02:10:48.267Z,95323.50
2022-11-22T02:13:17.283Z,95332.16
2022-11-22T02:15:46.174Z,95330.13
2022-11-22T02:18:15.130Z,95322.31
2022-11-22T02:20:44.383Z,95323.25
2022-11-22T02:23:15.801Z,95335.50
2022-11-22T02:25:53.717Z,95336.19
2022-11-22T02:28:24.903Z,95336.94
2022-11-22T02:30:54.138Z,95333.09
2022-11-22T02:33:23.038Z,95336.63
2022-11-22T02:35:52.090Z,95346.63
2022-11-22T02:38:23.034Z,95343.28
2022-11-22T02:40:56.436Z,95351.56
2022-11-22T02:43:26.549Z,95351.19
2022-11-22T02:45:55.724Z,95347.59
2022-11-22T02:48:24.681Z,95358.63
2022-11-22T02:50:53.576Z,95356.94
2022-11-22T02:53:22.740Z,95357.06
2022-11-22T02:55:53.031Z,95357.66
2022-11-22T02:58:21.888Z,95342.50
2022-11-22T03:00:53.053Z,95351.66
2022-11-22T03:03:21.950Z,95356.56
2022-11-22T03:05:51.210Z,95348.09
2022-11-22T03:08:20.070Z,95342.69
2022-11-22T03:10:51.271Z,95350.88
2022-11-22T03:13:21.585Z,95355.94
2022-11-22T03:15:50.440Z,95347.00
2022-11-22T03:18:19.876Z,95361.78
2022-11-22T03:20:49.732Z,95355.59
2022-11-22T03:23:18.595Z,95363.06
2022-11-22T03:25:47.446Z,95364.59
2022-11-22T03:28:16.718Z,95372.41
2022-11-22T03:30:47.989Z,95373.88
2022-11-22T03:33:17.107Z,95375.41
2022-11-22T03:35:46.163Z,95374.22
2022-11-22T03:38:16.361Z,95372.69
2022-11-22T03:40:48.216Z,95375.22
2022-11-22T03:43:17.408Z,95374.31
2022-11-22T03:45:48.156Z,95379.84
2022-11-22T03:48:18.074Z,95391.97
2022-11-22T03:50:46.957Z,95392.63
2022-11-22T03:53:16.180Z,95389.53
2022-11-22T03:55:45.334Z,95396.22
2022-11-22T03:58:14.275Z,95384.91
2022-11-22T04:00:43.100Z,95385.19
2022-11-22T04:03:13.368Z,95396.41
2022-11-22T04:05:45.172Z,95397.34
2022-11-22T04:08:15.132Z,95404.81
2022-11-22T04:10:44.050Z,95412.66
2022-11-22T04:13:14.523Z,95422.38
2022-11-22T04:15:46.857Z,95416.91
2022-11-22T04:18:17.169Z,95420.06
2022-11-22T04:21:00.667Z,95419.84
2022-11-22T04:23:34.076Z,95421.91
2022-11-22T04:26:02.899Z,95428.56
2022-11-22T04:29:01.407Z,95422.13
2022-11-22T04:31:34.473Z,95415.44
2022-11-22T04:34:04.806Z,95420.91
2022-11-22T04:36:33.728Z,95422.81
2022-11-22T04:39:02.927Z,95424.72
2022-11-22T04:41:31.778Z,95423.66
2022-11-22T04:44:14.254Z,95419.78
2022-11-22T04:46:43.411Z,95432.50
2022-11-22T04:49:13.800Z,95429.66
2022-11-22T04:51:56.581Z,95429.34
2022-11-22T04:54:25.569Z,95425.41
2022-11-22T04:56:54.425Z,95416.94
2022-11-22T04:59:23.291Z,95415.84
2022-11-22T05:01:52.192Z,95420.22
2022-11-22T05:04:22.419Z,95412.81
2022-11-22T05:06:51.857Z,95416.81
2022-11-22T05:09:20.812Z,95416.91
2022-11-22T05:11:49.975Z,95420.69
2022-11-22T05:14:18.834Z,95422.72
2022-11-22T05:16:47.692Z,95417.75
2022-11-22T05:19:16.559Z,95421.38
2022-11-22T05:21:47.149Z,95427.13
2022-11-22T05:24:15.105Z,95416.28
2022-11-22T05:26:44.002Z,95425.00
2022-11-22T05:29:12.841Z,95425.00
2022-11-22T05:31:46.881Z,95425.50
2022-11-22T05:34:18.912Z,95421.34
2022-11-22T05:36:49.182Z,95417.94
2022-11-22T05:39:18.424Z,95421.97
2022-11-22T05:41:56.315Z,95427.78
2022-11-22T05:44:25.536Z,95436.03
2022-11-22T05:46:54.691Z,95437.47
2022-11-22T05:49:23.546Z,95442.34
2022-11-22T05:51:54.024Z,95436.06
2022-11-22T05:54:22.874Z,95448.44
2022-11-22T05:56:51.785Z,95452.41
2022-11-22T05:59:20.757Z,95450.16
2022-11-22T06:01:49.770Z,95465.25
2022-11-22T06:04:19.134Z,95466.78
2022-11-22T06:06:48.882Z,95472.81
2022-11-22T06:09:19.168Z,95481.75
2022-11-22T06:11:48.066Z,95480.63
2022-11-22T06:14:16.966Z,95484.41
2022-11-22T06:16:45.942Z,95489.66
2022-11-22T06:19:15.867Z,95485.00
2022-11-22T06:21:44.739Z,95485.63
2022-11-22T06:24:13.711Z,95494.31
2022-11-22T06:26:43.994Z,95490.56
2022-11-22T06:29:14.204Z,95499.09
2022-11-22T06:31:43.493Z,95500.84
2022-11-22T06:34:14.798Z,95502.09
2022-11-22T06:36:43.834Z,95501.72
2022-11-22T06:39:13.276Z,95501.03
2022-11-22T06:41:43.703Z,95501.03
2022-11-22T06:44:13.212Z,95510.56
2022-11-22T06:46:42.052Z,95498.94
2022-11-22T06:49:11.948Z,95492.28
2022-11-22T06:51:40.903Z,95502.28
2022-11-22T06:54:12.457Z,95509.69
2022-11-22T06:56:43.454Z,95510.94
2022-11-22T06:59:12.419Z,95497.59
2022-11-22T07:01:41.385Z,95500.75
2022-11-22T07:04:10.328Z,95505.41
2022-11-22T07:06:40.021Z,95526.47
2022-11-22T07:09:09.700Z,95525.22
2022-11-22T07:11:38.743Z,95527.19
2022-11-22T07:14:09.685Z,95532.91
2022-11-22T07:16:38.869Z,95528.97
2022-11-22T07:19:07.994Z,95535.84
2022-11-22T07:21:38.211Z,95530.34
2022-11-22T07:24:08.089Z,95531.22
2022-11-22T07:26:36.989Z,95528.56
2022-11-22T07:29:05.924Z,95537.31
2022-11-22T07:31:36.704Z,95530.03
2022-11-22T07:34:08.468Z,95530.03
2022-11-22T07:36:38.886Z,95516.63
2022-11-22T07:39:07.816Z,95523.16
2022-11-22T07:41:37.303Z,95526.94
2022-11-22T07:44:06.734Z,95520.78
2022-11-22T07:46:37.126Z,95518.91
2022-11-22T07:49:06.590Z,95519.75
2022-11-22T07:51:35.737Z,95534.22
2022-11-22T07:54:06.197Z,95537.59
2022-11-22T07:56:36.150Z,95517.50
2022-11-22T07:59:05.149Z,95528.66
2022-11-22T08:01:34.172Z,95523.63
2022-11-22T08:04:12.953Z,95518.66
2022-11-22T08:06:41.857Z,95521.28
2022-11-22T08:09:11.920Z,95528.91
2022-11-22T08:11:40.890Z,95526.72
2022-11-22T08:14:10.902Z,95529.66
2022-11-22T08:16:40.841Z,95528.97
2022-11-22T08:19:16.210Z,95533.75
2022-11-22T08:21:45.142Z,95533.88
2022-11-22T08:24:14.417Z,95526.38
2022-11-22T08:26:43.826Z,95524.88
2022-11-22T08:29:14.491Z,95524.44
2022-11-22T08:31:43.644Z,95525.72
2022-11-22T08:34:14.089Z,95533.88
2022-11-22T08:36:42.965Z,95535.75
2022-11-22T08:39:11.865Z,95529.50
2022-11-22T08:41:40.726Z,95530.22
2022-11-22T08:44:09.652Z,95531.09
2022-11-22T08:46:38.642Z,95544.19
2022-11-22T08:49:07.749Z,95545.28
2022-11-22T08:51:38.034Z,95556.72
2022-11-22T08:54:06.918Z,95555.47
2022-11-22T08:56:35.858Z,95550.81
2022-11-22T08:59:04.824Z,95547.09
2022-11-22T09:04:19.742Z,95553.56
2022-11-22T09:09:38.962Z,95558.91
2022-11-22T09:12:10.970Z,95551.38
2022-11-22T09:14:40.814Z,95555.63
2022-11-22T09:17:14.590Z,95557.34
2022-11-22T09:19:46.409Z,95558.63
2022-11-22T09:22:16.789Z,95554.13
2022-11-22T09:24:48.379Z,95545.41
2022-11-22T09:27:17.303Z,95547.22
2022-11-22T09:29:50.230Z,95540.44
2022-11-22T09:32:20.082Z,95549.22
2022-11-22T09:34:51.130Z,95544.38
2022-11-22T09:37:21.696Z,95545.84
2022-11-22T09:39:50.640Z,95547.31
2022-11-22T09:42:32.371Z,95546.81
2022-11-22T09:45:22.158Z,95552.34
2022-11-22T09:47:56.780Z,95546.28
2022-11-22T09:50:27.945Z,95540.28
2022-11-22T09:53:03.521Z,95543.09
2022-11-22T09:55:35.214Z,95544.59
2022-11-22T09:58:07.783Z,95538.06
2022-11-22T10:00:36.802Z,95546.69
2022-11-22T10:03:08.605Z,95538.63
2022-11-22T10:05:50.614Z,95540.09
2022-11-22T10:08:29.560Z,95542.19
2022-11-22T10:10:58.424Z,95537.81
2022-11-22T10:13:31.523Z,95531.19
2022-11-22T10:16:02.058Z,95538.88
2022-11-22T10:18:36.623Z,95532.25
2022-11-22T10:21:08.721Z,95542.88
2022-11-22T10:23:39.138Z,95540.69
2022-11-22T10:26:13.466Z,95535.59
2022-11-22T10:28:44.902Z,95536.66
2022-11-22T10:31:16.956Z,95539.00
2022-11-22T10:33:54.515Z,95527.41
2022-11-22T10:36:29.078Z,95522.53
2022-11-22T10:39:08.931Z,95519.66
2022-11-22T10:41:44.693Z,95516.25
2022-11-22T10:44:19.943Z,95503.22
2022-11-22T10:46:56.680Z,95495.66
2022-11-22T10:49:45.283Z,95499.81
2022-11-22T10:52:19.005Z,95489.56
2022-11-22T10:54:52.957Z,95491.00
2022-11-22T10:57:27.475Z,95481.25
2022-11-22T11:00:18.171Z,95490.25
2022-11-22T11:02:57.907Z,95483.56
2022-11-22T11:05:30.517Z,95483.38
2022-11-22T11:08:22.035Z,95484.31
2022-11-22T11:10:57.133Z,95482.34
2022-11-22T11:13:27.148Z,95475.25
2022-11-22T11:15:57.080Z,95470.03
2022-11-22T11:18:28.995Z,95471.31
2022-11-22T11:20:57.891Z,95465.31
2022-11-22T11:23:27.463Z,95459.16
2022-11-22T11:25:57.790Z,95466.88
2022-11-22T11:28:28.363Z,95460.22
2022-11-22T11:31:01.997Z,95456.66
2022-11-22T11:33:31.987Z,95451.53
2022-11-22T11:36:05.348Z,95456.03
2022-11-22T11:38:36.647Z,95448.53
2022-11-22T11:41:28.477Z,95447.00
2022-11-22T11:43:57.978Z,95444.69
2022-11-22T11:46:28.226Z,95447.16
2022-11-22T11:48:58.514Z,95436.78
2022-11-22T11:51:31.631Z,95434.91
2022-11-22T11:54:02.550Z,95439.31
2022-11-22T11:56:37.522Z,95444.69
2022-11-22T11:59:09.886Z,95449.81
2022-11-22T12:01:39.371Z,95456.03
2022-11-22T12:04:08.537Z,95456.47
2022-11-22T12:07:00.101Z,95446.81
2022-11-22T12:09:35.106Z,95445.00
2022-11-22T12:12:14.972Z,95455.50
2022-11-22T12:15:09.609Z,95455.31
2022-11-22T12:17:33.417Z,95457.19
2022-11-22T12:20:05.219Z,95458.06
2022-11-22T12:22:53.438Z,95453.13
2022-11-22T12:25:32.539Z,95461.00
2022-11-22T12:28:20.665Z,95462.09
2022-11-22T12:30:51.360Z,95467.41
2022-11-22T12:33:21.471Z,95464.91
2022-11-22T12:35:50.631Z,95464.06
2022-11-22T12:38:20.445Z,95462.03
2022-11-22T12:40:49.943Z,95446.78
2022-11-22T12:43:23.307Z,95453.41
2022-11-22T12:45:54.414Z,95454.53
2022-11-22T12:48:26.125Z,95454.34
2022-11-22T12:50:58.732Z,95458.34
2022-11-22T12:53:33.422Z,95461.28
2022-11-22T12:56:04.358Z,95470.06
2022-11-22T12:58:39.112Z,95477.22
2022-11-22T13:01:12.063Z,95465.16
2022-11-22T13:03:43.995Z,95464.31
2022-11-22T13:06:13.895Z,95468.63
2022-11-22T13:08:50.114Z,95473.53
2022-11-22T13:11:25.038Z,95465.88
2022-11-22T13:13:56.191Z,95465.16
2022-11-22T13:16:25.534Z,95458.22
2022-11-22T13:19:02.318Z,95457.50
2022-11-22T13:21:46.664Z,95446.28
2022-11-22T13:24:24.618Z,95449.06
2022-11-22T13:26:59.123Z,95452.25
2022-11-22T13:29:47.908Z,95453.78
2022-11-22T13:32:34.393Z,95451.72
2022-11-22T13:35:29.654Z,95451.63
2022-11-22T13:38:02.899Z,95443.66
2022-11-22T13:40:36.874Z,95454.59
2022-11-22T13:43:33.544Z,95457.09
2022-11-22T13:46:04.719Z,95449.88
2022-11-22T13:49:02.871Z,95449.31
2022-11-22T13:51:56.226Z,95450.88
2022-11-22T13:54:54.387Z,95441.28
2022-11-22T13:57:28.458Z,95446.63
2022-11-22T14:00:30.840Z,95445.69
2022-11-22T14:03:22.023Z,95438.91
2022-11-22T14:05:51.512Z,95437.78
2022-11-22T14:08:30.594Z,95430.31
2022-11-22T14:11:12.437Z,95433.16
2022-11-22T14:13:48.134Z,95428.25
2022-11-22T14:16:25.991Z,95428.47
2022-11-22T14:19:00.766Z,95430.94
2022-11-22T14:21:44.615Z,95433.06
2022-11-22T14:24:20.280Z,95433.75
2022-11-22T14:26:58.606Z,95430.59
2022-11-22T14:29:53.717Z,95434.59
2022-11-22T14:32:23.317Z,95427.56
2022-11-22T14:35:18.535Z,95426.44
2022-11-22T14:37:49.157Z,95453.84
2022-11-22T14:40:31.909Z,95439.78
2022-11-22T14:43:07.742Z,95441.06
2022-11-22T14:45:42.995Z,95447.63
2022-11-22T14:48:17.561Z,95442.69
2022-11-22T14:50:53.744Z,95450.81
2022-11-22T14:53:27.963Z,95438.44
2022-11-22T14:55:59.618Z,95445.19
2022-11-22T14:58:30.673Z,95443.22
2022-11-22T15:01:23.178Z,95436.63
2022-11-22T15:09:11.236Z,95446.44
2022-11-22T15:09:14.436Z,95446.31
2022-11-22T15:10:35.286Z,95443.91
2022-11-22T15:13:15.355Z,95447.38
2022-11-22T15:59:09.423Z,95483.84
2022-11-22T16:01:40.753Z,95486.47
2022-11-22T16:04:21.231Z,95488.75
2022-11-22T16:06:51.894Z,95493.22
2022-11-22T16:09:25.472Z,95505.16
2022-11-22T16:12:01.559Z,95504.88
2022-11-22T16:14:44.948Z,95509.59
2022-11-22T16:17:24.306Z,95514.38
2022-11-22T16:19:53.328Z,95517.25
2022-11-22T16:22:30.963Z,95514.81
2022-11-22T16:25:22.598Z,95514.56
2022-11-22T16:27:51.646Z,95519.34
2022-11-22T16:30:23.827Z,95525.38
2022-11-22T16:32:55.832Z,95528.75
2022-11-22T16:35:31.968Z,95530.28
2022-11-22T16:38:01.967Z,95537.63
2022-11-22T16:40:31.348Z,95536.53
2022-11-22T16:43:03.183Z,95537.91
2022-11-22T16:45:37.402Z,95536.94
2022-11-22T16:48:30.662Z,95545.69
2022-11-22T16:51:01.115Z,95540.28
2022-11-22T16:53:38.234Z,95547.84
2022-11-22T16:56:09.155Z,95547.06
2022-11-22T16:58:38.020Z,95547.63
2022-11-22T17:01:14.394Z,95552.75
2022-11-22T17:03:43.315Z,95556.53
2022-11-22T17:06:18.973Z,95558.34
2022-11-22T17:08:48.911Z,95569.81
2022-11-22T17:11:18.821Z,95567.81
2022-11-22T17:13:47.881Z,95572.59
2022-11-22T17:16:19.287Z,95572.00
2022-11-22T17:18:50.671Z,95572.69
2022-11-22T17:21:24.372Z,95563.31
2022-11-22T17:23:53.440Z,95573.66
2022-11-22T17:26:22.901Z,95584.16
2022-11-22T17:28:52.334Z,95579.63
2022-11-22T17:31:28.295Z,95580.88
2022-11-22T17:34:01.005Z,95586.06
2022-11-22T17:36:31.049Z,95597.38
2022-11-22T17:39:06.627Z,95598.06
2022-11-22T17:41:38.425Z,95604.31
2022-11-22T17:44:09.980Z,95612.56
2022-11-22T17:46:44.550Z,95608.69
2022-11-22T17:49:16.161Z,95615.09
2022-11-22T17:51:51.056Z,95626.06
2022-11-22T17:54:23.312Z,95623.41
2022-11-22T17:56:52.712Z,95622.97
2022-11-22T17:59:24.191Z,95627.28
2022-11-22T18:02:05.322Z,95633.44
2022-11-22T18:04:44.415Z,95631.09
2022-11-22T18:07:23.867Z,95636.72
2022-11-22T18:09:57.077Z,95624.94
2022-11-22T18:12:29.909Z,95629.72
2022-11-22T18:15:03.277Z,95635.94
2022-11-22T18:17:50.649Z,95636.50
2022-11-22T18:20:22.885Z,95649.94
2022-11-22T18:23:01.546Z,95646.34
2022-11-22T18:25:31.530Z,95644.31
2022-11-22T18:28:08.546Z,95647.06
2022-11-22T18:30:38.105Z,95650.06
2022-11-22T18:33:11.768Z,95646.22
2022-11-22T18:35:45.784Z,95638.84
2022-11-22T18:38:24.987Z,95640.22
2022-11-22T18:40:54.927Z,95642.03
2022-11-22T18:43:23.848Z,95652.94
2022-11-22T18:46:01.505Z,95649.63
2022-11-22T18:48:32.874Z,95654.34
2022-11-22T18:51:14.283Z,95649.38
2022-11-22T18:53:43.329Z,95653.13
2022-11-22T18:56:17.286Z,95656.38
2022-11-22T18:58:53.082Z,95645.81
2022-11-22T19:01:23.448Z,95656.06
2022-11-22T19:03:54.297Z,95659.50
2022-11-22T19:06:24.144Z,95666.50
2022-11-22T19:08:54.206Z,95677.63
2022-11-22T19:11:26.207Z,95671.59
2022-11-22T19:14:00.164Z,95674.00
2022-11-22T19:16:30.966Z,95670.97
2022-11-22T19:19:01.440Z,95676.28
2022-11-22T19:21:31.065Z,95671.34
2022-11-22T19:24:03.385Z,95665.13
2022-11-22T19:26:35.108Z,95668.47
2022-11-22T19:29:05.408Z,95668.47
2022-11-22T19:31:34.679Z,95667.19
2022-11-22T19:34:05.201Z,95668.31
2022-11-22T19:36:48.358Z,95663.00
2022-11-22T19:39:21.177Z,95667.47
2022-11-22T19:41:55.072Z,95669.31
2022-11-22T19:44:27.738Z,95660.84
2022-11-22T19:47:03.249Z,95667.00
2022-11-22T19:49:34.605Z,95670.44
2022-11-22T19:52:06.939Z,95672.03
2022-11-22T19:54:36.534Z,95665.25
2022-11-22T19:57:08.829Z,95670.34
2022-11-22T19:59:37.977Z,95671.59
2022-11-22T20:02:07.300Z,95672.09
2022-11-22T20:04:40.682Z,95683.50
2022-11-22T20:07:09.766Z,95678.56
2022-11-22T20:09:39.364Z,95681.63
2022-11-22T20:12:11.062Z,95682.53
2022-11-22T20:14:40.255Z,95685.72
2022-11-22T20:17:11.763Z,95686.53
2022-11-22T20:19:43.275Z,95680.28
2022-11-22T20:22:13.236Z,95677.13
2022-11-22T20:24:44.113Z,95671.72
2022-11-22T20:27:14.464Z,95669.59
2022-11-22T20:29:46.711Z,95673.41
2022-11-22T20:32:20.063Z,95684.19
2022-11-22T20:34:51.481Z,95682.72
2022-11-22T20:37:22.801Z,95691.41
2022-11-22T20:39:51.866Z,95695.53
2022-11-22T20:42:36.443Z,95697.56
2022-11-22T20:45:09.192Z,95700.84
2022-11-22T20:47:40.767Z,95712.00
2022-11-22T20:50:15.330Z,95701.50
2022-11-22T20:52:54.779Z,95700.75
2022-11-22T20:55:30.552Z,95699.09
2022-11-22T20:57:59.548Z,95700.59
2022-11-22T21:00:28.930Z,95698.84
2022-11-22T21:02:58.533Z,95702.66
2022-11-22T21:05:29.249Z,95695.88
2022-11-22T21:08:03.874Z,95696.56
2022-11-22T21:10:35.283Z,95699.38
2022-11-22T21:13:16.161Z,95697.47
2022-11-22T21:15:45.171Z,95694.22
2022-11-22T21:18:25.374Z,95693.59
2022-11-22T21:21:04.999Z,95703.63
2022-11-22T21:23:37.847Z,95702.31
2022-11-22T21:26:11.505Z,95698.00
2022-11-22T21:28:45.557Z,95702.09
2022-11-22T21:31:14.640Z,95715.34
2022-11-22T21:33:47.122Z,95711.13
2022-11-22T21:36:18.145Z,95704.00
2022-11-22T21:38:48.159Z,95709.94
2022-11-22T21:44:08.342Z,95713.38
2022-11-22T21:46:38.308Z,95710.63
2022-11-22T21:49:07.326Z,95711.91
2022-11-22T21:51:38.891Z,95716.16
2022-11-22T21:54:08.297Z,95703.56
2022-11-22T21:56:38.817Z,95715.25
2022-11-22T21:59:08.333Z,95716.22
2022-11-22T22:01:39.507Z,95724.69
2022-11-22T22:04:08.444Z,95718.81
2022-11-22T22:06:42.326Z,95720.50
2022-11-22T22:09:14.473Z,95725.28
2022-11-22T22:11:45.906Z,95722.31
2022-11-22T22:14:14.910Z,95718.69
2022-11-22T22:16:43.803Z,95721.47
2022-11-22T22:19:12.727Z,95727.81
2022-11-22T22:21:46.069Z,95722.00
2022-11-22T22:24:15.371Z,95732.00
2022-11-22T22:26:44.256Z,95729.38
2022-11-22T22:29:13.972Z,95718.44
2022-11-22T22:31:43.271Z,95723.09
2022-11-22T22:34:12.288Z,95722.19
2022-11-22T22:36:43.376Z,95715.47
2022-11-22T22:39:12.588Z,95720.72
2022-11-22T22:41:41.505Z,95722.53
2022-11-22T22:44:10.711Z,95725.91
2022-11-22T22:46:40.873Z,95725.28
2022-11-22T22:49:10.033Z,95725.97
2022-11-22T22:51:38.887Z,95730.94
2022-11-22T22:54:11.108Z,95736.69
2022-11-22T22:56:46.145Z,95732.81
2022-11-22T22:59:15.849Z,95727.81
2022-11-22T23:01:44.859Z,95726.19
2022-11-22T23:04:13.759Z,95727.59
2022-11-22T23:06:42.958Z,95728.50
2022-11-22T23:09:13.603Z,95728.63
2022-11-22T23:11:56.107Z,95729.31
2022-11-22T23:14:27.096Z,95735.16
2022-11-22T23:16:57.973Z,95739.06
2022-11-22T23:19:27.744Z,95739.00
2022-11-22T23:21:56.709Z,95745.59
2022-11-22T23:24:31.605Z,95747.19
2022-11-22T23:27:00.522Z,95739.44
2022-11-22T23:29:30.801Z,95736.69
2022-11-22T23:32:00.142Z,95737.00
2022-11-22T23:34:29.003Z,95745.28
2022-11-22T23:37:01.079Z,95749.22
2022-11-22T23:39:31.585Z,95740.41
2022-11-22T23:42:00.744Z,95747.19
2022-11-22T23:44:29.624Z,95745.66
2022-11-22T23:46:59.730Z,95744.53
2022-11-22T23:49:31.732Z,95748.19
2022-11-22T23:52:01.156Z,95748.88
2022-11-22T23:54:31.463Z,95752.28
2022-11-22T23:57:00.371Z,95755.03
2022-11-22T23:59:29.533Z,95743.69
